Time;durP1;ratioP1;P1;durP2;ratioP2;P2;SDS_P1;SDS_P2;PMS_P1;PMS_P2;Temp;Humidity;BMP_temperature;BMP_pressure;BME280_temperature;BME280_humidity;BME280_pressure;Samples;Min_cycle;Max_cycle;Signal;HPM_P1;HPM_P2
2023/08/03 00:00:42;;;;;;;6.57;2.20;;;;;;;;;;6164802;23;20009;-94
2023/08/03 00:03:16;;;;;;;11.40;2.25;;;;;;;;;;6165596;23;20017;-95
2023/08/03 00:05:50;;;;;;;8.10;2.05;;;;;;;;;;6164329;23;20059;-95
2023/08/03 00:08:29;;;;;;;10.25;1.95;;;;;;;;;;6164825;23;20017;-94
2023/08/03 00:11:00;;;;;;;5.68;2.40;;;;;;;;;;6141050;23;20008;-94
2023/08/03 00:13:41;;;;;;;2.83;1.70;;;;;;;;;;6188789;23;20005;-94
2023/08/03 00:16:26;;;;;;;10.77;1.98;;;;;;;;;;6162841;23;20016;-93
2023/08/03 00:18:53;;;;;;;16.27;3.25;;;;;;;;;;6188903;23;20009;-96
2023/08/03 00:21:32;;;;;;;8.52;2.08;;;;;;;;;;6164526;23;20016;-96
2023/08/03 00:23:59;;;;;;;10.88;2.25;;;;;;;;;;6214541;23;20087;-96
2023/08/03 00:26:42;;;;;;;8.02;1.60;;;;;;;;;;6220753;23;20012;-96
2023/08/03 00:29:08;;;;;;;4.85;2.08;;;;;;;;;;6197186;23;20008;-95
2023/08/03 00:31:34;;;;;;;5.95;1.77;;;;;;;;;;6221131;23;20012;-95
2023/08/03 00:34:09;;;;;;;5.95;1.92;;;;;;;;;;6195812;23;20020;-94
2023/08/03 00:36:35;;;;;;;8.00;1.98;;;;;;;;;;6220272;23;20086;-95
2023/08/03 00:39:14;;;;;;;;;;;;;;;;;;;;;
2023/08/03 00:41:49;;;;;;;6.32;1.75;;;;;;;;;;6222247;23;20025;-96
2023/08/03 00:44:21;;;;;;;10.90;1.80;;;;;;;;;;6195719;23;20004;-95
2023/08/03 00:47:08;;;;;;;6.43;1.83;;;;;;;;;;6196382;23;20005;-96
2023/08/03 00:49:37;;;;;;;;;;;;;;;;;;6211033;23;20004;-95
2023/08/03 00:52:03;;;;;;;4.43;1.83;;;;;;;;;;6219914;23;19910;-93
2023/08/03 00:54:32;;;;;;;4.90;1.73;;;;;;;;;;6198768;23;20008;-95
2023/08/03 00:57:11;;;;;;;5.35;1.90;;;;;;;;;;6197102;23;20009;-96
2023/08/03 00:59:43;;;;;;;4.22;1.58;;;;;;;;;;6197447;23;20012;-95
2023/08/03 01:02:09;;;;;;;4.75;2.10;;;;;;;;;;6196926;23;20004;-95
2023/08/03 01:04:41;;;;;;;8.38;2.35;;;;;;;;;;6195751;23;20071;-93
2023/08/03 01:07:17;;;;;;;19.10;1.75;;;;;;;;;;6197623;23;20008;-92
2023/08/03 01:09:43;;;;;;;;;;;;;;;;;;6217333;23;20480;-93
2023/08/03 01:12:11;;;;;;;7.00;1.85;;;;;;;;;;6218291;23;20369;-94
2023/08/03 01:14:37;;;;;;;6.40;1.58;;;;;;;;;;6189705;23;20486;-92
2023/08/03 01:17:03;;;;;;;3.80;1.45;;;;;;;;;;6216248;23;20017;-92
2023/08/03 01:19:29;;;;;;;6.00;1.38;;;;;;;;;;6190052;23;20074;-92
2023/08/03 01:21:57;;;;;;;4.43;1.58;;;;;;;;;;6214999;23;20004;-92
2023/08/03 01:24:23;;;;;;;4.05;1.60;;;;;;;;;;6213513;23;20061;-90
2023/08/03 01:26:49;;;;;;;7.95;1.80;;;;;;;;;;6189282;23;20004;-91
2023/08/03 01:29:15;;;;;;;8.13;1.90;;;;;;;;;;6215409;23;20015;-92
2023/08/03 01:31:42;;;;;;;8.10;1.70;;;;;;;;;;6190932;23;20502;-92
2023/08/03 01:34:08;;;;;;;5.78;2.00;;;;;;;;;;6191097;23;20020;-93
2023/08/03 01:36:40;;;;;;;6.32;2.17;;;;;;;;;;6190846;23;20461;-92
2023/08/03 01:39:10;;;;;;;3.28;1.70;;;;;;;;;;6216788;23;20564;-91
2023/08/03 01:41:42;;;;;;;5.07;1.80;;;;;;;;;;6217768;23;20008;-92
2023/08/03 01:44:21;;;;;;;7.30;1.67;;;;;;;;;;6215547;23;20427;-92
2023/08/03 01:46:49;;;;;;;8.63;1.80;;;;;;;;;;6217889;23;20474;-94
2023/08/03 01:49:16;;;;;;;14.98;2.03;;;;;;;;;;6218432;23;20488;-92
2023/08/03 01:51:44;;;;;;;11.57;1.88;;;;;;;;;;6195288;23;20376;-92
2023/08/03 01:54:11;;;;;;;12.07;2.47;;;;;;;;;;6195624;23;20307;-95
2023/08/03 01:56:38;;;;;;;13.52;2.20;;;;;;;;;;6190311;23;20040;-95
2023/08/03 01:59:04;;;;;;;2.92;1.95;;;;;;;;;;6216029;23;20440;-94
2023/08/03 02:01:30;;;;;;;5.85;1.85;;;;;;;;;;6191604;23;20147;-93
2023/08/03 02:03:56;;;;;;;13.05;2.05;;;;;;;;;;6197547;22;20384;-93
2023/08/03 02:06:27;;;;;;;4.50;1.95;;;;;;;;;;6221087;23;20441;-93
2023/08/03 02:08:53;;;;;;;7.15;2.20;;;;;;;;;;6198042;23;20012;-92
2023/08/03 02:11:19;;;;;;;3.75;1.98;;;;;;;;;;6196907;23;20007;-92
2023/08/03 02:13:45;;;;;;;9.05;2.20;;;;;;;;;;6198049;23;20187;-92
2023/08/03 02:16:14;;;;;;;4.28;2.22;;;;;;;;;;6198115;23;20012;-92
2023/08/03 02:18:40;;;;;;;6.85;1.90;;;;;;;;;;6196248;23;20316;-92
2023/08/03 02:21:14;;;;;;;17.38;2.22;;;;;;;;;;6222438;23;19997;-91
2023/08/03 02:23:40;;;;;;;10.77;2.08;;;;;;;;;;6197707;23;20020;-93
2023/08/03 02:26:09;;;;;;;9.43;2.10;;;;;;;;;;6222078;23;19997;-94
2023/08/03 02:28:35;;;;;;;9.02;2.45;;;;;;;;;;6196607;23;20012;-94
2023/08/03 02:31:04;;;;;;;6.32;2.67;;;;;;;;;;6196620;23;20024;-94
2023/08/03 02:34:14;;;;;;;7.50;2.67;;;;;;;;;;6196357;23;20104;-92
2023/08/03 02:36:40;;;;;;;3.75;2.45;;;;;;;;;;6077192;23;20011;-93
2023/08/03 02:39:07;;;;;;;9.95;3.15;;;;;;;;;;6134336;23;20176;-94
2023/08/03 02:41:46;;;;;;;9.38;2.85;;;;;;;;;;6134220;23;20006;-94
2023/08/03 02:44:12;;;;;;;6.95;2.33;;;;;;;;;;6132390;23;20017;-93
2023/08/03 02:46:58;;;;;;;7.47;2.50;;;;;;;;;;6132288;23;20558;-95
2023/08/03 02:49:25;;;;;;;2.30;1.50;;;;;;;;;;6107845;23;20013;-95
2023/08/03 02:51:51;;;;;;;2.83;1.52;;;;;;;;;;6130972;23;20009;-93
2023/08/03 02:54:20;;;;;;;5.03;1.90;;;;;;;;;;6131324;23;20013;-92
2023/08/03 02:59:35;;;;;;;4.45;1.95;;;;;;;;;;6155756;23;20542;-93
2023/08/03 03:02:04;;;;;;;5.68;1.70;;;;;;;;;;6130499;23;20016;-93
2023/08/03 03:04:30;;;;;;;2.28;0.98;;;;;;;;;;6130702;23;20126;-92
2023/08/03 03:07:02;;;;;;;6.18;1.48;;;;;;;;;;6144325;23;20031;-92
2023/08/03 03:09:29;;;;;;;3.92;1.58;;;;;;;;;;6192642;23;20596;-94
2023/08/03 03:11:55;;;;;;;1.98;1.48;;;;;;;;;;6192993;23;20063;-95
2023/08/03 03:14:25;;;;;;;3.33;1.60;;;;;;;;;;6214241;23;20009;-93
2023/08/03 03:16:57;;;;;;;6.97;1.77;;;;;;;;;;6215592;23;20005;-93
2023/08/03 03:19:33;;;;;;;5.03;1.80;;;;;;;;;;6214543;23;20012;-92
2023/08/03 03:22:03;;;;;;;4.30;1.98;;;;;;;;;;6214623;23;20081;-94
2023/08/03 03:24:30;;;;;;;4.68;2.03;;;;;;;;;;6213529;23;20485;-93
2023/08/03 03:27:27;;;;;;;6.35;2.25;;;;;;;;;;6189327;23;20009;-90
2023/08/03 03:29:56;;;;;;;3.42;2.20;;;;;;;;;;6173715;23;20004;-92
2023/08/03 03:32:22;;;;;;;4.13;2.28;;;;;;;;;;6189919;23;20431;-91
2023/08/03 03:35:02;;;;;;;4.78;2.58;;;;;;;;;;6191857;23;20009;-93
2023/08/03 03:37:34;;;;;;;5.15;2.35;;;;;;;;;;6214857;23;20008;-93
2023/08/03 03:40:06;;;;;;;5.43;2.40;;;;;;;;;;6213453;23;20020;-95
2023/08/03 03:42:32;;;;;;;8.20;2.85;;;;;;;;;;6189960;23;20410;-95
2023/08/03 03:45:04;;;;;;;6.03;2.47;;;;;;;;;;6127115;23;20451;-93
2023/08/03 03:47:33;;;;;;;4.82;3.03;;;;;;;;;;6127141;23;20009;-92
2023/08/03 03:50:00;;;;;;;4.97;2.35;;;;;;;;;;6126134;23;20013;-92
2023/08/03 03:52:26;;;;;;;11.88;2.83;;;;;;;;;;6126472;23;20009;-92
2023/08/03 03:55:10;;;;;;;6.28;2.92;;;;;;;;;;6104303;23;20013;-92
2023/08/03 03:57:36;;;;;;;6.25;2.53;;;;;;;;;;6105045;23;20017;-94
2023/08/03 04:00:04;;;;;;;10.50;2.75;;;;;;;;;;6103569;23;20112;-94
2023/08/03 04:03:26;;;;;;;9.65;3.20;;;;;;;;;;6103471;23;20010;-93
2023/08/03 04:06:01;;;;;;;6.38;2.70;;;;;;;;;;6147080;23;20031;-94
2023/08/03 04:08:34;;;;;;;9.43;3.85;;;;;;;;;;6104966;23;20017;-93
2023/08/03 04:11:03;;;;;;;11.38;3.47;;;;;;;;;;6127980;23;20029;-93
2023/08/03 04:13:31;;;;;;;7.75;3.53;;;;;;;;;;6103665;23;20088;-92
2023/08/03 04:15:58;;;;;;;10.70;3.25;;;;;;;;;;6168396;23;20434;-93
2023/08/03 04:18:27;;;;;;;8.23;3.20;;;;;;;;;;6214069;23;20043;-95
2023/08/03 04:20:54;;;;;;;6.13;3.38;;;;;;;;;;6214340;23;20005;-94
2023/08/03 04:23:20;;;;;;;8.40;4.20;;;;;;;;;;6215358;23;20051;-94
2023/08/03 04:25:46;;;;;;;7.45;3.70;;;;;;;;;;6218407;23;20407;-93
2023/08/03 04:28:23;;;;;;;6.90;3.53;;;;;;;;;;6216971;23;20004;-93
2023/08/03 04:31:02;;;;;;;9.43;4.22;;;;;;;;;;6192579;23;20004;-94
2023/08/03 04:33:31;;;;;;;12.05;4.07;;;;;;;;;;6193897;23;20015;-93
2023/08/03 04:35:59;;;;;;;13.07;4.75;;;;;;;;;;6192929;23;20004;-93
2023/08/03 04:38:28;;;;;;;13.43;4.70;;;;;;;;;;6191730;23;20008;-92
2023/08/03 04:41:09;;;;;;;13.70;5.28;;;;;;;;;;6193514;23;20029;-93
2023/08/03 04:43:35;;;;;;;8.95;3.78;;;;;;;;;;6214920;23;20001;-93
2023/08/03 04:48:57;;;;;;;13.68;4.93;;;;;;;;;;6126324;23;20009;-92
2023/08/03 04:51:48;;;;;;;12.77;5.05;;;;;;;;;;6212882;23;20035;-92
2023/08/03 04:54:14;;;;;;;13.73;5.13;;;;;;;;;;6216175;23;20004;-94
2023/08/03 04:56:41;;;;;;;20.67;5.78;;;;;;;;;;6216754;23;20005;-95
2023/08/03 05:01:57;;;;;;;22.30;5.15;;;;;;;;;;6216890;23;20441;-92
2023/08/03 05:04:36;;;;;;;12.18;5.68;;;;;;;;;;6219268;22;20330;-92
2023/08/03 05:07:08;;;;;;;13.18;5.05;;;;;;;;;;6216022;22;20009;-89
2023/08/03 05:09:40;;;;;;;12.60;4.80;;;;;;;;;;6191416;23;20016;-89
2023/08/03 05:12:06;;;;;;;15.40;5.15;;;;;;;;;;6192419;23;20013;-90
2023/08/03 05:14:32;;;;;;;10.23;5.03;;;;;;;;;;6191173;23;20450;-92
2023/08/03 05:17:05;;;;;;;20.08;5.47;;;;;;;;;;6189274;23;20009;-91
2023/08/03 05:19:31;;;;;;;12.10;5.63;;;;;;;;;;6191289;23;20329;-93
2023/08/03 05:22:05;;;;;;;12.82;5.80;;;;;;;;;;6190521;23;20427;-94
2023/08/03 05:24:34;;;;;;;15.85;5.45;;;;;;;;;;6190730;23;20009;-94
2023/08/03 05:27:01;;;;;;;12.80;5.80;;;;;;;;;;6215417;23;20056;-92
2023/08/03 05:29:31;;;;;;;14.38;5.97;;;;;;;;;;6190919;23;20152;-91
2023/08/03 05:31:58;;;;;;;14.27;5.43;;;;;;;;;;6191509;23;20570;-94
2023/08/03 05:34:37;;;;;;;17.45;5.90;;;;;;;;;;6190356;23;20461;-95
2023/08/03 05:37:06;;;;;;;12.90;5.38;;;;;;;;;;6214971;23;20435;-95
2023/08/03 05:39:42;;;;;;;16.73;6.00;;;;;;;;;;6216499;23;20009;-92
2023/08/03 05:42:14;;;;;;;15.52;5.43;;;;;;;;;;6170750;23;20039;-96
2023/08/03 05:44:53;;;;;;;14.45;6.00;;;;;;;;;;6218980;23;20005;-94
2023/08/03 05:47:19;;;;;;;20.85;6.70;;;;;;;;;;6194511;23;20312;-94
2023/08/03 05:49:48;;;;;;;19.65;6.65;;;;;;;;;;6193709;23;20095;-94
2023/08/03 05:52:15;;;;;;;17.98;6.85;;;;;;;;;;6191785;23;20009;-95
2023/08/03 05:54:45;;;;;;;17.98;6.53;;;;;;;;;;6192950;23;20012;-96
2023/08/03 05:57:33;;;;;;;17.85;6.18;;;;;;;;;;6217108;23;20453;-95
2023/08/03 06:00:34;;;;;;;85.50;10.02;;;;;;;;;;6217021;23;20012;-94
2023/08/03 06:03:05;;;;;;;41.85;9.95;;;;;;;;;;6218450;23;20005;-94
2023/08/03 06:05:56;;;;;;;15.25;5.85;;;;;;;;;;6218475;22;20092;-94
2023/08/03 06:08:30;;;;;;;8.40;4.68;;;;;;;;;;6185316;23;20066;-93
2023/08/03 06:10:57;;;;;;;13.70;4.82;;;;;;;;;;6165984;23;20063;-94
2023/08/03 06:13:33;;;;;;;9.75;5.28;;;;;;;;;;6192064;23;20009;-95
2023/08/03 06:16:02;;;;;;;;;;;;;;;;;;6193292;23;20008;-93
2023/08/03 06:18:30;;;;;;;21.58;4.95;;;;;;;;;;6191912;23;20314;-94
2023/08/03 06:21:02;;;;;;;22.23;5.15;;;;;;;;;;6191874;23;20001;-95
2023/08/03 06:23:41;;;;;;;6.93;3.95;;;;;;;;;;6220783;23;20051;-95
2023/08/03 06:26:38;;;;;;;7.07;4.28;;;;;;;;;;6194308;23;20442;-95
2023/08/03 06:29:05;;;;;;;13.77;4.45;;;;;;;;;;6191862;23;20012;-93
2023/08/03 06:31:35;;;;;;;7.75;4.18;;;;;;;;;;6189699;23;20342;-90
2023/08/03 06:34:02;;;;;;;13.40;4.13;;;;;;;;;;6195420;23;20005;-95
2023/08/03 06:36:28;;;;;;;6.82;3.22;;;;;;;;;;6194921;23;20047;-96
2023/08/03 06:39:27;;;;;;;8.50;3.92;;;;;;;;;;6195254;23;20008;-95
2023/08/03 06:42:02;;;;;;;6.38;3.78;;;;;;;;;;6194132;23;20466;-94
2023/08/03 06:44:35;;;;;;;5.82;3.80;;;;;;;;;;6170032;23;20350;-91
2023/08/03 06:47:02;;;;;;;6.60;3.70;;;;;;;;;;6193635;23;20007;-94
2023/08/03 06:49:29;;;;;;;9.30;3.90;;;;;;;;;;6220769;23;20382;-94
2023/08/03 06:52:10;;;;;;;5.60;3.38;;;;;;;;;;6191875;23;20005;-94
2023/08/03 06:54:58;;;;;;;7.10;3.55;;;;;;;;;;6170215;23;20018;-96
2023/08/03 06:57:32;;;;;;;6.55;4.40;;;;;;;;;;6192951;23;20132;-96
2023/08/03 07:00:23;;;;;;;3.92;3.20;;;;;;;;;;6193374;23;20008;-94
2023/08/03 07:02:50;;;;;;;4.65;3.00;;;;;;;;;;6181616;23;20446;-96
2023/08/03 07:05:29;;;;;;;3.90;2.22;;;;;;;;;;6195284;23;20438;-95
2023/08/03 07:08:01;;;;;;;2.92;2.38;;;;;;;;;;6206018;22;20044;-95
2023/08/03 07:10:30;;;;;;;6.03;2.55;;;;;;;;;;6194258;23;20012;-96
2023/08/03 07:13:13;;;;;;;6.30;1.90;;;;;;;;;;6194492;23;20073;-95
2023/08/03 07:15:42;;;;;;;4.57;1.95;;;;;;;;;;6219256;23;20347;-96
2023/08/03 07:18:14;;;;;;;2.95;2.00;;;;;;;;;;6194616;23;20059;-96
2023/08/03 07:21:21;;;;;;;5.45;2.17;;;;;;;;;;6192484;23;20151;-96
2023/08/03 07:23:55;;;;;;;4.90;2.00;;;;;;;;;;6188830;23;20386;-95
2023/08/03 07:27:02;;;;;;;8.80;1.80;;;;;;;;;;6189998;23;20013;-95
2023/08/03 07:29:30;;;;;;;1.83;1.70;;;;;;;;;;6219066;23;20012;-96
2023/08/03 07:32:30;;;;;;;2.63;1.52;;;;;;;;;;6218196;23;20000;-95
2023/08/03 07:35:18;;;;;;;2.88;1.98;;;;;;;;;;6219018;23;20024;-95
2023/08/03 07:37:52;;;;;;;5.90;1.77;;;;;;;;;;6203720;23;20012;-92
2023/08/03 07:40:29;;;;;;;2.03;1.15;;;;;;;;;;6195261;23;20008;-95
2023/08/03 07:43:00;;;;;;;1.75;0.73;;;;;;;;;;6196038;23;20005;-94
2023/08/03 07:45:28;;;;;;;4.35;1.20;;;;;;;;;;6193225;23;20013;-95
2023/08/03 07:47:54;;;;;;;6.03;1.40;;;;;;;;;;6194318;23;20008;-96
2023/08/03 07:50:30;;;;;;;3.75;0.95;;;;;;;;;;6192698;23;20012;-96
2023/08/03 07:53:13;;;;;;;1.33;0.82;;;;;;;;;;6217462;23;20036;-92
2023/08/03 07:55:41;;;;;;;4.60;1.08;;;;;;;;;;6217309;23;20009;-94
2023/08/03 07:58:11;;;;;;;3.10;1.10;;;;;;;;;;6217579;23;20009;-90
2023/08/03 08:00:45;;;;;;;4.88;1.17;;;;;;;;;;6217132;23;20008;-93
2023/08/03 08:03:17;;;;;;;2.22;0.95;;;;;;;;;;6217008;23;20434;-95
2023/08/03 08:05:53;;;;;;;4.80;1.15;;;;;;;;;;6216483;23;20004;-94
2023/08/03 08:08:32;;;;;;;3.33;1.00;;;;;;;;;;6187366;23;20024;-93
2023/08/03 08:11:12;;;;;;;;;;;;;;;;;;;;;
2023/08/03 08:13:39;;;;;;;10.90;1.23;;;;;;;;;;6218352;23;20045;-90
2023/08/03 08:16:26;;;;;;;4.72;1.25;;;;;;;;;;6217432;23;20000;-92
2023/08/03 08:19:12;;;;;;;2.60;1.05;;;;;;;;;;6217627;23;20011;-95
2023/08/03 08:21:42;;;;;;;2.45;1.10;;;;;;;;;;6216515;23;20005;-94
2023/08/03 08:24:21;;;;;;;3.60;1.20;;;;;;;;;;6191661;23;20033;-94
2023/08/03 08:26:54;;;;;;;8.02;1.20;;;;;;;;;;6193336;23;20008;-96
2023/08/03 08:32:37;;;;;;;5.32;1.38;;;;;;;;;;6217649;23;20028;-95
2023/08/03 08:35:19;;;;;;;4.25;1.63;;;;;;;;;;6217079;23;20013;-94
2023/08/03 08:37:49;;;;;;;4.80;1.50;;;;;;;;;;6216672;23;20009;-95
2023/08/03 08:40:39;;;;;;;4.35;1.30;;;;;;;;;;6189740;23;20482;-94
2023/08/03 08:43:19;;;;;;;4.00;1.38;;;;;;;;;;6169870;23;20008;-96
2023/08/03 08:48:57;;;;;;;5.70;1.40;;;;;;;;;;6174168;23;20012;-95
2023/08/03 08:51:43;;;;;;;3.95;1.45;;;;;;;;;;6158598;23;20095;-96
2023/08/03 08:54:32;;;;;;;3.87;0.90;;;;;;;;;;6190018;23;20004;-95
2023/08/03 08:57:03;;;;;;;5.13;1.58;;;;;;;;;;6189962;23;20438;-91
2023/08/03 08:59:29;;;;;;;3.80;1.38;;;;;;;;;;6130485;23;20116;-95
2023/08/03 09:02:02;;;;;;;6.13;1.70;;;;;;;;;;6106951;23;20016;-96
2023/08/03 09:04:36;;;;;;;9.75;1.45;;;;;;;;;;6128989;23;20012;-95
2023/08/03 09:07:03;;;;;;;8.05;1.50;;;;;;;;;;6107163;23;20033;-96
2023/08/03 09:10:04;;;;;;;9.90;1.45;;;;;;;;;;6100731;23;20524;-96
2023/08/03 09:12:54;;;;;;;9.35;1.40;;;;;;;;;;6044380;23;20185;-93
2023/08/03 09:15:49;;;;;;;8.18;1.60;;;;;;;;;;6038057;23;20034;-96
2023/08/03 09:18:43;;;;;;;2.35;1.20;;;;;;;;;;6034160;23;20018;-95
2023/08/03 09:21:35;;;;;;;3.72;1.20;;;;;;;;;;6043865;23;20014;-96
2023/08/03 09:24:22;;;;;;;3.80;1.77;;;;;;;;;;5946808;23;20129;-95
2023/08/03 09:27:24;;;;;;;4.80;1.73;;;;;;;;;;6125664;23;20006;-95
2023/08/03 09:30:01;;;;;;;14.52;1.67;;;;;;;;;;6101770;23;20424;-90
2023/08/03 09:32:42;;;;;;;6.65;1.98;;;;;;;;;;6102918;23;20006;-96
2023/08/03 09:35:41;;;;;;;9.25;1.70;;;;;;;;;;6103226;23;20012;-95
2023/08/03 09:38:28;;;;;;;6.63;1.65;;;;;;;;;;6090878;23;20386;-95
2023/08/03 09:41:15;;;;;;;7.03;1.75;;;;;;;;;;6101939;23;20010;-96
2023/08/03 09:43:54;;;;;;;12.85;2.17;;;;;;;;;;6089199;23;20009;-96
2023/08/03 09:46:29;;;;;;;15.35;2.40;;;;;;;;;;6100121;23;20002;-94
2023/08/03 09:49:01;;;;;;;10.23;2.38;;;;;;;;;;6122668;23;20010;-92
2023/08/03 09:51:38;;;;;;;4.47;1.67;;;;;;;;;;6100109;23;20600;-92
2023/08/03 09:54:36;;;;;;;9.45;1.83;;;;;;;;;;6101728;23;20010;-94
2023/08/03 09:57:17;;;;;;;4.72;1.80;;;;;;;;;;6115887;23;20017;-90
2023/08/03 10:00:08;;;;;;;5.35;1.70;;;;;;;;;;6101897;23;20006;-95
2023/08/03 10:02:54;;;;;;;6.82;2.05;;;;;;;;;;6102723;23;20524;-93
2023/08/03 10:08:16;;;;;;;11.73;1.90;;;;;;;;;;6187469;23;20012;-96
2023/08/03 10:14:13;;;;;;;7.68;1.83;;;;;;;;;;6217089;23;20023;-96
2023/08/03 10:16:51;;;;;;;8.35;1.80;;;;;;;;;;6217669;23;20268;-93
2023/08/03 10:19:39;;;;;;;13.20;2.13;;;;;;;;;;6193906;23;20071;-96
2023/08/03 10:25:30;;;;;;;6.97;2.20;;;;;;;;;;6220042;23;20016;-95
2023/08/03 10:28:16;;;;;;;7.57;2.35;;;;;;;;;;6200520;23;20477;-96
2023/08/03 10:31:03;;;;;;;14.02;2.35;;;;;;;;;;6223734;23;20063;-96
2023/08/03 10:33:56;;;;;;;27.27;3.90;;;;;;;;;;6220115;23;20012;-91
2023/08/03 10:36:31;;;;;;;16.65;3.38;;;;;;;;;;6217261;23;20012;-95
2023/08/03 10:39:04;;;;;;;15.45;4.20;;;;;;;;;;6217294;23;20005;-94
2023/08/03 10:42:00;;;;;;;10.48;2.97;;;;;;;;;;6218345;23;20000;-92
2023/08/03 10:44:37;;;;;;;8.57;2.85;;;;;;;;;;6217814;23;20004;-95
2023/08/03 10:50:19;;;;;;;12.23;3.80;;;;;;;;;;6128027;23;20006;-96
2023/08/03 10:52:47;;;;;;;15.18;3.35;;;;;;;;;;6217680;23;20004;-94
2023/08/03 10:55:40;;;;;;;7.45;2.72;;;;;;;;;;6193017;23;20008;-96
2023/08/03 10:58:06;;;;;;;12.10;2.90;;;;;;;;;;6218486;23;20009;-95
2023/08/03 11:00:32;;;;;;;12.85;2.75;;;;;;;;;;6192938;23;20438;-95
2023/08/03 11:03:10;;;;;;;8.73;2.33;;;;;;;;;;6193890;23;20075;-95
2023/08/03 11:05:39;;;;;;;4.07;2.03;;;;;;;;;;6220662;23;20008;-95
2023/08/03 11:08:13;;;;;;;8.13;2.40;;;;;;;;;;6219943;23;20001;-96
2023/08/03 11:11:32;;;;;;;;;;;;;;;;;;;;;
2023/08/03 11:14:41;;;;;;;6.38;2.00;;;;;;;;;;6222924;22;20051;-96
2023/08/03 11:17:51;;;;;;;5.80;1.70;;;;;;;;;;6219769;23;20012;-94
2023/08/03 11:20:19;;;;;;;11.77;1.77;;;;;;;;;;6105331;23;20010;-96
2023/08/03 11:22:59;;;;;;;8.32;2.63;;;;;;;;;;6105404;23;20014;-96
2023/08/03 11:25:39;;;;;;;8.63;2.05;;;;;;;;;;6083794;23;20069;-96
2023/08/03 11:31:19;;;;;;;5.78;1.65;;;;;;;;;;6204701;23;20008;-95
2023/08/03 11:33:58;;;;;;;5.95;1.30;;;;;;;;;;6218667;23;20055;-95
2023/08/03 11:36:25;;;;;;;2.00;1.20;;;;;;;;;;6219396;23;20028;-95
2023/08/03 11:41:45;;;;;;;2.00;1.30;;;;;;;;;;6187378;23;20499;-92
2023/08/03 11:44:19;;;;;;;5.70;0.88;;;;;;;;;;6164845;23;20028;-94
2023/08/03 11:46:49;;;;;;;2.15;1.10;;;;;;;;;;6161678;23;20013;-95
2023/08/03 11:49:30;;;;;;;5.65;1.25;;;;;;;;;;6138209;23;20055;-96
2023/08/03 11:52:02;;;;;;;4.78;0.90;;;;;;;;;;6160605;23;20483;-95
2023/08/03 11:54:34;;;;;;;2.80;1.30;;;;;;;;;;6137576;23;20020;-94
2023/08/03 12:00:00;;;;;;;3.72;1.27;;;;;;;;;;6165852;23;20085;-93
2023/08/03 12:02:45;;;;;;;2.47;1.00;;;;;;;;;;6137991;23;20005;-94
2023/08/03 12:05:44;;;;;;;2.10;1.15;;;;;;;;;;6160382;23;20466;-94
2023/08/03 12:08:10;;;;;;;4.60;1.38;;;;;;;;;;6160890;23;20001;-96
2023/08/03 12:10:55;;;;;;;3.75;1.50;;;;;;;;;;6136728;23;20013;-96
2023/08/03 12:13:22;;;;;;;5.10;1.40;;;;;;;;;;6161390;23;20016;-96
2023/08/03 12:15:51;;;;;;;3.10;1.42;;;;;;;;;;6162346;23;20016;-95
2023/08/03 12:18:23;;;;;;;3.38;1.55;;;;;;;;;;6138394;23;20013;-92
2023/08/03 12:20:55;;;;;;;4.50;1.52;;;;;;;;;;6138897;23;20019;-95
2023/08/03 12:23:47;;;;;;;7.50;1.60;;;;;;;;;;6135290;23;20009;-94
2023/08/03 12:26:21;;;;;;;5.07;1.77;;;;;;;;;;6159614;23;20001;-96
2023/08/03 12:34:55;;;;;;;9.13;1.65;;;;;;;;;;6150484;23;20036;-96
2023/08/03 12:37:47;;;;;;;5.70;1.50;;;;;;;;;;6215926;23;20008;-93
2023/08/03 12:41:01;;;;;;;7.72;1.58;;;;;;;;;;6214948;23;20004;-96
2023/08/03 12:43:30;;;;;;;6.03;1.20;;;;;;;;;;6187399;23;20028;-93
2023/08/03 12:46:06;;;;;;;9.45;1.70;;;;;;;;;;6189989;23;20019;-94
2023/08/03 12:48:38;;;;;;;2.53;1.08;;;;;;;;;;6214412;23;20000;-95
2023/08/03 12:54:11;;;;;;;5.85;1.45;;;;;;;;;;6215735;23;20016;-94
2023/08/03 12:56:46;;;;;;;9.85;2.85;;;;;;;;;;6214510;23;20000;-94
2023/08/03 12:59:42;;;;;;;5.85;1.40;;;;;;;;;;6209750;23;20031;-91
2023/08/03 13:02:14;;;;;;;5.15;1.58;;;;;;;;;;6201276;23;20000;-93
2023/08/03 13:05:02;;;;;;;3.70;2.20;;;;;;;;;;6213665;23;20094;-91
2023/08/03 13:07:40;;;;;;;3.85;1.85;;;;;;;;;;6211945;23;20094;-95
2023/08/03 13:10:09;;;;;;;15.95;3.00;;;;;;;;;;6192393;23;20019;-92
2023/08/03 13:12:44;;;;;;;7.75;2.05;;;;;;;;;;6192769;22;20024;-94
2023/08/03 13:15:42;;;;;;;11.10;1.83;;;;;;;;;;6160392;23;20088;-95
2023/08/03 13:18:16;;;;;;;5.63;2.03;;;;;;;;;;6159528;23;20045;-95
2023/08/03 13:21:18;;;;;;;7.43;2.47;;;;;;;;;;6157795;23;20012;-95
2023/08/03 13:23:54;;;;;;;9.35;1.90;;;;;;;;;;6181113;23;20057;-95
2023/08/03 13:26:23;;;;;;;5.65;2.15;;;;;;;;;;6159339;23;20005;-96
2023/08/03 13:28:52;;;;;;;5.22;1.58;;;;;;;;;;6160858;23;20031;-95
2023/08/03 13:31:21;;;;;;;7.05;1.80;;;;;;;;;;6159356;23;20008;-93
2023/08/03 13:33:51;;;;;;;14.13;2.60;;;;;;;;;;6158909;23;20415;-95
2023/08/03 13:36:22;;;;;;;9.68;2.50;;;;;;;;;;6159636;23;20012;-94
2023/08/03 13:38:51;;;;;;;9.15;1.60;;;;;;;;;;6157815;23;20328;-95
2023/08/03 13:41:17;;;;;;;7.07;3.30;;;;;;;;;;6157865;23;20005;-92
2023/08/03 13:46:42;;;;;;;7.80;1.90;;;;;;;;;;6175653;23;20088;-94
2023/08/03 13:49:21;;;;;;;6.18;1.77;;;;;;;;;;6181287;23;20040;-93
2023/08/03 13:52:05;;;;;;;6.55;2.15;;;;;;;;;;6157603;23;20009;-95
2023/08/03 13:54:33;;;;;;;8.40;2.20;;;;;;;;;;6157914;23;20008;-94
2023/08/03 13:57:21;;;;;;;8.68;2.30;;;;;;;;;;6157261;23;20020;-93
2023/08/03 13:59:52;;;;;;;10.70;2.17;;;;;;;;;;6167418;23;20047;-92
2023/08/03 14:02:19;;;;;;;13.60;2.38;;;;;;;;;;6161796;23;20031;-95
2023/08/03 14:07:58;;;;;;;14.07;2.65;;;;;;;;;;6183806;23;20602;-94
2023/08/03 14:10:51;;;;;;;13.20;3.20;;;;;;;;;;6171766;23;20009;-92
2023/08/03 14:13:17;;;;;;;11.07;5.13;;;;;;;;;;6071277;23;20014;-94
2023/08/03 14:16:11;;;;;;;;;;;;;;;;;;;;;
2023/08/03 14:19:03;;;;;;;15.45;3.50;;;;;;;;;;6072682;23;20466;-92
2023/08/03 14:21:29;;;;;;;11.55;3.53;;;;;;;;;;6012546;23;20011;-95
2023/08/03 14:24:19;;;;;;;19.67;4.57;;;;;;;;;;6044956;23;20021;-94
2023/08/03 14:27:22;;;;;;;23.17;3.78;;;;;;;;;;6129652;23;20045;-93
2023/08/03 14:38:41;;;;;;;18.10;3.47;;;;;;;;;;6153729;23;20101;-93
2023/08/03 14:41:27;;;;;;;14.48;3.33;;;;;;;;;;6038186;23;20007;-93
2023/08/03 14:43:53;;;;;;;;;;;;;;;;;;6011861;23;20003;-90
2023/08/03 14:46:20;;;;;;;21.02;2.92;;;;;;;;;;6010831;23;20240;-92
2023/08/03 14:48:46;;;;;;;16.20;3.30;;;;;;;;;;6006555;23;20038;-89
2023/08/03 14:51:15;;;;;;;11.00;2.42;;;;;;;;;;5985665;23;20011;-89
2023/08/03 14:53:41;;;;;;;5.60;1.75;;;;;;;;;;6006775;23;20014;-90
2023/08/03 14:56:10;;;;;;;7.82;2.17;;;;;;;;;;6009365;23;20015;-93
2023/08/03 14:58:58;;;;;;;3.42;1.80;;;;;;;;;;5989750;23;20093;-95
2023/08/03 15:01:30;;;;;;;5.35;1.95;;;;;;;;;;6040882;23;20007;-90
2023/08/03 15:03:59;;;;;;;10.93;2.33;;;;;;;;;;5994887;23;20027;-96
2023/08/03 15:06:28;;;;;;;5.78;2.60;;;;;;;;;;5992293;23;20011;-93
2023/08/03 15:08:54;;;;;;;5.95;2.72;;;;;;;;;;6014523;23;20080;-96
2023/08/03 15:11:21;;;;;;;6.07;2.30;;;;;;;;;;5991054;23;20015;-92
2023/08/03 15:13:50;;;;;;;14.57;2.80;;;;;;;;;;5992446;23;20023;-94
2023/08/03 15:16:27;;;;;;;19.20;3.20;;;;;;;;;;6018108;23;20440;-94
2023/08/03 15:18:54;;;;;;;14.50;3.30;;;;;;;;;;6067273;23;20009;-94
2023/08/03 15:21:27;;;;;;;11.55;3.70;;;;;;;;;;6149041;23;20337;-93
2023/08/03 15:23:56;;;;;;;12.70;3.63;;;;;;;;;;6148160;23;20317;-94
2023/08/03 15:26:22;;;;;;;12.02;3.15;;;;;;;;;;6151068;23;20017;-93
2023/08/03 15:28:48;;;;;;;15.02;3.55;;;;;;;;;;6147752;23;20016;-91
2023/08/03 15:31:17;;;;;;;18.52;3.38;;;;;;;;;;6101161;23;20092;-92
2023/08/03 15:33:44;;;;;;;10.95;3.25;;;;;;;;;;6150122;23;20029;-91
2023/08/03 15:36:19;;;;;;;11.38;3.50;;;;;;;;;;6151247;23;20550;-91
2023/08/03 15:38:50;;;;;;;18.67;3.80;;;;;;;;;;6224372;23;20005;-91
2023/08/03 15:41:17;;;;;;;13.30;3.75;;;;;;;;;;6211130;23;20008;-93
2023/08/03 15:43:43;;;;;;;15.45;3.85;;;;;;;;;;6185078;23;20012;-94
2023/08/03 15:46:10;;;;;;;11.30;4.43;;;;;;;;;;6187176;23;20009;-94
2023/08/03 15:48:37;;;;;;;27.95;6.60;;;;;;;;;;6208049;23;20083;-92
2023/08/03 15:51:05;;;;;;;17.95;4.30;;;;;;;;;;6185572;23;20008;-94
2023/08/03 15:53:31;;;;;;;18.90;5.40;;;;;;;;;;6209219;23;20004;-92
2023/08/03 15:55:59;;;;;;;15.93;5.35;;;;;;;;;;6186300;23;20005;-96
2023/08/03 15:58:25;;;;;;;19.95;6.30;;;;;;;;;;6185374;23;20008;-90
2023/08/03 16:00:53;;;;;;;23.42;4.47;;;;;;;;;;6215458;23;20039;-94
2023/08/03 16:03:25;;;;;;;18.33;4.40;;;;;;;;;;6217022;23;20442;-93
2023/08/03 16:05:55;;;;;;;21.98;4.53;;;;;;;;;;6216502;23;20001;-94
2023/08/03 16:08:23;;;;;;;17.20;4.70;;;;;;;;;;6213881;23;20005;-93
2023/08/03 16:10:57;;;;;;;23.75;4.72;;;;;;;;;;6213383;23;20028;-92
2023/08/03 16:13:23;;;;;;;28.80;5.13;;;;;;;;;;6211498;22;20013;-93
2023/08/03 16:15:52;;;;;;;21.48;5.03;;;;;;;;;;6212663;23;20016;-90
2023/08/03 16:18:41;;;;;;;24.27;4.85;;;;;;;;;;6188224;23;20501;-92
2023/08/03 16:21:08;;;;;;;29.33;4.43;;;;;;;;;;6203462;23;20012;-91
2023/08/03 16:23:35;;;;;;;18.95;4.60;;;;;;;;;;6209999;23;20008;-87
2023/08/03 16:26:11;;;;;;;17.92;5.25;;;;;;;;;;6211846;23;20451;-92
2023/08/03 16:28:37;;;;;;;22.70;4.25;;;;;;;;;;6209858;23;20009;-93